Time;durP1;ratioP1;P1;durP2;ratioP2;P2;SDS_P1;SDS_P2;PMS_P1;PMS_P2;Temp;Humidity;BMP_temperature;BMP_pressure;BME280_temperature;BME280_humidity;BME280_pressure;Samples;Min_cycle;Max_cycle;Signal;HPM_P1;HPM_P2
2022/01/09 00:01:14;;;;;;;;;;;103.00;2227.20;;;;;;4958074;28;20243;-75
2022/01/09 00:03:39;;;;;;;;;;;102.90;2227.20;;;;;;4974526;28;19921;-76
2022/01/09 00:06:05;;;;;;;;;;;102.80;2227.20;;;;;;4974516;28;20321;-75
2022/01/09 00:08:31;;;;;;;;;;;102.60;2227.20;;;;;;4973662;28;19907;-75
2022/01/09 00:10:56;;;;;;;;;;;102.50;2227.20;;;;;;4955299;28;19906;-76
2022/01/09 00:13:22;;;;;;;;;;;102.50;2227.20;;;;;;4958476;29;19997;-76
2022/01/09 00:15:48;;;;;;;;;;;102.50;2227.20;;;;;;4958782;29;19913;-76
2022/01/09 00:18:13;;;;;;;;;;;102.60;2227.20;;;;;;4958762;29;19910;-75
2022/01/09 00:20:39;;;;;;;;;;;102.40;2227.20;;;;;;4944787;28;20282;-76
2022/01/09 00:23:04;;;;;;;;;;;102.50;2227.20;;;;;;4967543;28;20366;-74
2022/01/09 00:25:33;;;;;;;;;;;77.70;2227.20;;;;;;4968726;28;19968;-74
2022/01/09 00:27:59;;;;;;;;;;;77.60;2227.20;;;;;;4967254;28;19934;-76
2022/01/09 00:30:24;;;;;;;;;;;77.50;2227.20;;;;;;4967557;28;19910;-76
2022/01/09 00:32:51;;;;;;;;;;;77.70;2227.20;;;;;;4968724;28;19906;-75
2022/01/09 00:35:16;;;;;;;;;;;77.70;2227.20;;;;;;4951449;28;19913;-75
2022/01/09 00:37:42;;;;;;;;;;;77.70;2227.20;;;;;;4967849;28;20281;-76
2022/01/09 00:40:09;;;;;;;;;;;102.40;2227.20;;;;;;4959428;28;20405;-76
2022/01/09 00:42:35;;;;;;;;;;;102.40;2227.20;;;;;;4966477;28;19914;-76
2022/01/09 00:45:01;;;;;;;;;;;77.70;2227.20;;;;;;4985008;28;19906;-76
2022/01/09 00:47:26;;;;;;;;;;;77.60;2227.20;;;;;;4967649;28;19933;-76
2022/01/09 00:49:52;;;;;;;;;;;77.70;2227.20;;;;;;4966446;28;19997;-76
2022/01/09 00:52:18;;;;;;;;;;;102.50;2227.20;;;;;;4968454;28;19910;-74
2022/01/09 00:54:43;;;;;;;;;;;102.50;2227.20;;;;;;4968288;28;20477;-75
2022/01/09 00:57:10;;;;;;;;;;;102.40;2227.20;;;;;;4966715;28;20282;-76
2022/01/09 00:59:35;;;;;;;;;;;102.40;2227.20;;;;;;4968431;28;20354;-75
2022/01/09 01:02:01;;;;;;;;;;;77.70;2227.20;;;;;;4968003;28;19917;-75
2022/01/09 01:04:27;;;;;;;;;;;77.70;2227.20;;;;;;4967557;28;20334;-77
2022/01/09 01:06:52;;;;;;;;;;;102.40;2227.20;;;;;;4964987;28;19907;-76
2022/01/09 01:09:20;;;;;;;;;;;102.40;2227.20;;;;;;4967900;28;19913;-75
2022/01/09 01:11:46;;;;;;;;;;;77.70;2227.20;;;;;;4965938;28;20374;-78
2022/01/09 01:14:12;;;;;;;;;;;102.40;2227.20;;;;;;4969604;28;19914;-75
2022/01/09 01:16:39;;;;;;;;;;;77.70;2227.20;;;;;;4966110;28;20377;-75
2022/01/09 01:19:06;;;;;;;;;;;102.50;2227.20;;;;;;4966029;28;19913;-76
2022/01/09 01:21:32;;;;;;;;;;;102.40;2227.20;;;;;;4966568;28;20004;-76
2022/01/09 01:23:58;;;;;;;;;;;102.50;2227.20;;;;;;4983429;28;19914;-76
2022/01/09 01:26:23;;;;;;;;;;;77.70;2227.20;;;;;;4965895;28;19910;-76
2022/01/09 01:28:49;;;;;;;;;;;102.40;2227.20;;;;;;4966194;28;20001;-76
2022/01/09 01:31:14;;;;;;;;;;;77.70;2227.20;;;;;;4965698;28;20299;-76
2022/01/09 01:33:40;;;;;;;;;;;102.40;2227.20;;;;;;4966000;28;20266;-76
2022/01/09 01:36:06;;;;;;;;;;;102.50;2227.20;;;;;;4966668;28;19906;-76
2022/01/09 01:38:33;;;;;;;;;;;77.70;2227.20;;;;;;4966156;28;19913;-77
2022/01/09 01:40:58;;;;;;;;;;;102.40;2227.20;;;;;;4965514;28;19925;-77
2022/01/09 01:43:24;;;;;;;;;;;102.50;2227.20;;;;;;4949425;28;19922;-77
2022/01/09 01:45:50;;;;;;;;;;;102.40;2227.20;;;;;;4966422;28;19962;-78
2022/01/09 01:48:16;;;;;;;;;;;102.40;2227.20;;;;;;4949915;28;20397;-75
2022/01/09 01:50:42;;;;;;;;;;;77.70;2227.20;;;;;;4966772;28;19910;-75
2022/01/09 01:53:15;;;;;;;;;;;77.70;2227.20;;;;;;4966296;28;20295;-75
2022/01/09 01:55:41;;;;;;;;;;;102.40;2227.20;;;;;;4964144;28;19949;-75
2022/01/09 01:58:08;;;;;;;;;;;102.40;2227.20;;;;;;4964690;28;19906;-75
2022/01/09 02:00:34;;;;;;;;;;;102.50;2227.20;;;;;;4949716;28;19917;-75
2022/01/09 02:02:59;;;;;;;;;;;102.40;2227.20;;;;;;4964818;28;19915;-77
2022/01/09 02:05:25;;;;;;;;;;;102.50;2227.20;;;;;;4947469;28;19906;-77
2022/01/09 02:07:51;;;;;;;;;;;102.40;2227.20;;;;;;4948352;28;19949;-75
2022/01/09 02:10:17;;;;;;;;;;;102.40;2227.20;;;;;;4967970;28;19996;-75
2022/01/09 02:12:43;;;;;;;;;;;102.40;2227.20;;;;;;4965341;28;19907;-75
2022/01/09 02:15:27;;;;;;;;;;;102.40;2227.20;;;;;;4971720;28;19986;-77
2022/01/09 02:17:53;;;;;;;;;;;102.40;2227.20;;;;;;4964187;28;20372;-76
2022/01/09 02:20:18;;;;;;;;;;;77.70;2227.20;;;;;;4966644;28;19910;-76
2022/01/09 02:22:44;;;;;;;;;;;77.70;2227.20;;;;;;4965150;28;19918;-76
2022/01/09 02:25:10;;;;;;;;;;;77.70;2227.20;;;;;;4965360;28;19906;-76
2022/01/09 02:27:36;;;;;;;;;;;77.70;2227.20;;;;;;4966520;28;20004;-76
2022/01/09 02:30:02;;;;;;;;;;;102.40;2227.20;;;;;;4964579;28;19914;-76
2022/01/09 02:32:27;;;;;;;;;;;102.40;2227.20;;;;;;4964486;28;19917;-77
2022/01/09 02:34:53;;;;;;;;;;;77.60;2227.20;;;;;;4965600;28;20374;-76
2022/01/09 02:37:18;;;;;;;;;;;77.70;2227.20;;;;;;4964459;28;19907;-76
2022/01/09 02:39:44;;;;;;;;;;;77.70;2227.20;;;;;;4965638;28;20365;-76
2022/01/09 02:42:19;;;;;;;;;;;77.50;2227.20;;;;;;4965436;28;19914;-76
2022/01/09 02:44:44;;;;;;;;;;;77.60;2227.20;;;;;;4963461;28;19913;-75
2022/01/09 02:47:10;;;;;;;;;;;77.60;2227.20;;;;;;4965263;28;19910;-75
2022/01/09 02:49:35;;;;;;;;;;;77.50;2227.20;;;;;;4965944;28;19953;-75
2022/01/09 02:52:09;;;;;;;;;;;77.40;2227.20;;;;;;4962879;28;19933;-76
2022/01/09 02:57:19;;;;;;;;;;;77.40;2227.20;;;;;;4966100;28;19912;-77
2022/01/09 02:59:45;;;;;;;;;;;77.30;2227.20;;;;;;4964226;28;19997;-75
2022/01/09 03:02:10;;;;;;;;;;;77.40;2227.20;;;;;;4947281;28;19914;-76
2022/01/09 03:04:36;;;;;;;;;;;77.30;2227.20;;;;;;4964296;28;19952;-75
2022/01/09 03:07:01;;;;;;;;;;;77.30;2227.20;;;;;;4966176;28;19906;-78
2022/01/09 03:09:27;;;;;;;;;;;77.20;2227.20;;;;;;4962956;28;19953;-77
2022/01/09 03:11:53;;;;;;;;;;;77.20;2227.20;;;;;;4963301;28;19906;-75
2022/01/09 03:14:18;;;;;;;;;;;77.20;2227.20;;;;;;4965766;28;19996;-74
2022/01/09 03:16:44;;;;;;;;;;;77.40;2227.20;;;;;;4964054;28;19918;-75
2022/01/09 03:19:09;;;;;;;;;;;77.50;2227.20;;;;;;4963610;28;20006;-75
2022/01/09 03:21:35;;;;;;;;;;;77.50;2227.20;;;;;;4965292;28;19918;-76
2022/01/09 03:24:01;;;;;;;;;;;77.40;2227.20;;;;;;4963522;28;19960;-75
2022/01/09 03:26:26;;;;;;;;;;;77.40;2227.20;;;;;;4963737;28;19952;-75
2022/01/09 03:28:52;;;;;;;;;;;77.40;2227.20;;;;;;4964908;28;19914;-76
2022/01/09 03:31:17;;;;;;;;;;;77.40;2227.20;;;;;;4963918;28;19910;-75
2022/01/09 03:33:43;;;;;;;;;;;77.30;2227.20;;;;;;4956596;28;19932;-76
2022/01/09 03:36:09;;;;;;;;;;;77.30;2227.20;;;;;;4964410;28;19914;-77
2022/01/09 03:38:34;;;;;;;;;;;77.40;2227.20;;;;;;4947112;28;19906;-76
2022/01/09 03:41:00;;;;;;;;;;;77.40;2227.20;;;;;;4963621;28;19930;-75
2022/01/09 03:43:25;;;;;;;;;;;77.50;2227.20;;;;;;4962476;28;20004;-75
2022/01/09 03:45:51;;;;;;;;;;;77.50;2227.20;;;;;;4963468;28;19953;-77
2022/01/09 03:48:16;;;;;;;;;;;77.50;2227.20;;;;;;4967574;28;19906;-76
2022/01/09 03:50:49;;;;;;;;;;;77.60;2227.20;;;;;;4966541;28;20259;-84
2022/01/09 03:53:15;;;;;;;;;;;77.50;2227.20;;;;;;4970696;28;19946;-76
2022/01/09 03:55:40;;;;;;;;;;;77.50;2227.20;;;;;;4967381;28;19930;-76
2022/01/09 03:58:06;;;;;;;;;;;77.40;2227.20;;;;;;4969452;28;19910;-76
2022/01/09 04:00:32;;;;;;;;;;;77.50;2227.20;;;;;;4966973;28;20344;-76
2022/01/09 04:02:57;;;;;;;;;;;77.50;2227.20;;;;;;4967265;28;19922;-77
2022/01/09 04:05:23;;;;;;;;;;;77.60;2227.20;;;;;;4967422;28;20270;-77
2022/01/09 04:07:49;;;;;;;;;;;77.60;2227.20;;;;;;4968815;28;19906;-76
2022/01/09 04:10:14;;;;;;;;;;;77.50;2227.20;;;;;;4968407;28;19918;-76
2022/01/09 04:12:52;;;;;;;;;;;77.60;2227.20;;;;;;4969088;28;19913;-76
2022/01/09 04:15:18;;;;;;;;;;;77.50;2227.20;;;;;;4967834;28;19993;-75
2022/01/09 04:17:54;;;;;;;;;;;77.50;2227.20;;;;;;4967753;28;20000;-76
2022/01/09 04:20:21;;;;;;;;;;;77.60;2227.20;;;;;;4968741;28;20018;-76
2022/01/09 04:22:47;;;;;;;;;;;77.70;2227.20;;;;;;4966669;28;19918;-75
2022/01/09 04:25:13;;;;;;;;;;;77.60;2227.20;;;;;;4967945;28;19906;-75
2022/01/09 04:27:38;;;;;;;;;;;77.70;2227.20;;;;;;4967142;28;19906;-75
2022/01/09 04:30:05;;;;;;;;;;;77.70;2227.20;;;;;;4967136;28;19910;-76
2022/01/09 04:32:31;;;;;;;;;;;77.50;2227.20;;;;;;4968435;28;19914;-77
2022/01/09 04:34:56;;;;;;;;;;;77.70;2227.20;;;;;;4966686;28;19914;-76
2022/01/09 04:37:22;;;;;;;;;;;77.50;2227.20;;;;;;4966729;28;19914;-76
2022/01/09 04:39:50;;;;;;;;;;;77.70;2227.20;;;;;;4967025;28;19918;-76
2022/01/09 04:42:15;;;;;;;;;;;77.60;2227.20;;;;;;4985443;28;20350;-76
2022/01/09 04:44:41;;;;;;;;;;;77.50;2227.20;;;;;;4968586;28;19913;-79
2022/01/09 04:47:12;;;;;;;;;;;77.60;2227.20;;;;;;4965650;28;19914;-81
2022/01/09 04:49:40;;;;;;;;;;;77.50;2227.20;;;;;;4968651;28;19917;-81
2022/01/09 04:52:09;;;;;;;;;;;77.60;2227.20;;;;;;4965970;28;19910;-80
2022/01/09 04:54:34;;;;;;;;;;;77.70;2227.20;;;;;;4983063;28;20066;-77
2022/01/09 04:57:02;;;;;;;;;;;77.70;2227.20;;;;;;4967001;28;19997;-76
2022/01/09 04:59:30;;;;;;;;;;;77.70;2227.20;;;;;;4964987;28;19913;-75
2022/01/09 05:01:56;;;;;;;;;;;77.60;2227.20;;;;;;4967189;28;20000;-76
2022/01/09 05:04:22;;;;;;;;;;;77.70;2227.20;;;;;;4966852;28;19952;-75
2022/01/09 05:06:47;;;;;;;;;;;102.40;2227.20;;;;;;4964965;28;19913;-75
2022/01/09 05:09:13;;;;;;;;;;;77.60;2227.20;;;;;;4967594;28;19910;-76
2022/01/09 05:11:39;;;;;;;;;;;77.70;2227.20;;;;;;4966219;28;20362;-76
2022/01/09 05:14:04;;;;;;;;;;;102.40;2227.20;;;;;;4966052;28;19954;-76
2022/01/09 05:16:30;;;;;;;;;;;102.50;2227.20;;;;;;4968055;28;19913;-75
2022/01/09 05:19:04;;;;;;;;;;;102.50;2227.20;;;;;;4966913;28;19961;-75
2022/01/09 05:21:30;;;;;;;;;;;102.50;2227.20;;;;;;4964913;28;19910;-76
2022/01/09 05:23:55;;;;;;;;;;;102.50;2227.20;;;;;;4967327;28;19918;-75
2022/01/09 05:26:21;;;;;;;;;;;102.40;2227.20;;;;;;4964816;28;19912;-76
2022/01/09 05:28:47;;;;;;;;;;;102.40;2227.20;;;;;;4967645;28;20329;-76
2022/01/09 05:31:12;;;;;;;;;;;102.50;2227.20;;;;;;4980541;28;19992;-75
2022/01/09 05:33:38;;;;;;;;;;;102.40;2227.20;;;;;;4959811;28;19906;-75
2022/01/09 05:36:04;;;;;;;;;;;77.70;2227.20;;;;;;4965684;28;21372;-76
2022/01/09 05:38:30;;;;;;;;;;;102.50;2227.20;;;;;;4965195;28;20369;-76
2022/01/09 05:40:55;;;;;;;;;;;102.40;2227.20;;;;;;4964809;28;20004;-76
2022/01/09 05:43:21;;;;;;;;;;;102.50;2227.20;;;;;;4966994;28;20001;-75
2022/01/09 05:45:47;;;;;;;;;;;77.70;2227.20;;;;;;4965515;28;19906;-75
2022/01/09 05:48:12;;;;;;;;;;;102.40;2227.20;;;;;;4967113;28;19946;-77
2022/01/09 05:50:38;;;;;;;;;;;102.40;2227.20;;;;;;4966711;28;20370;-77
2022/01/09 05:53:03;;;;;;;;;;;77.70;2227.20;;;;;;4965828;28;19931;-76
2022/01/09 05:55:32;;;;;;;;;;;102.40;2227.20;;;;;;4958366;28;19914;-75
2022/01/09 05:57:57;;;;;;;;;;;102.50;2227.20;;;;;;4949184;28;19913;-76
2022/01/09 06:00:23;;;;;;;;;;;102.40;2227.20;;;;;;4965638;28;19910;-77
2022/01/09 06:02:49;;;;;;;;;;;102.40;2227.20;;;;;;4967359;28;20390;-76
2022/01/09 06:05:14;;;;;;;;;;;102.40;2227.20;;;;;;4965749;28;19913;-77
2022/01/09 06:07:41;;;;;;;;;;;102.40;2227.20;;;;;;4969569;28;20255;-77
2022/01/09 06:10:07;;;;;;;;;;;102.40;2227.20;;;;;;4947030;28;19914;-76
2022/01/09 06:12:33;;;;;;;;;;;77.70;2227.20;;;;;;4966713;28;19906;-76
2022/01/09 06:14:59;;;;;;;;;;;102.40;2227.20;;;;;;4966016;28;19906;-76
2022/01/09 06:17:24;;;;;;;;;;;102.50;2227.20;;;;;;4963410;28;19910;-77
2022/01/09 06:19:50;;;;;;;;;;;102.40;2227.20;;;;;;4966791;28;20339;-76
2022/01/09 06:22:18;;;;;;;;;;;102.40;2227.20;;;;;;4965489;28;20378;-75
2022/01/09 06:24:46;;;;;;;;;;;102.50;2227.20;;;;;;4965364;28;19917;-75
2022/01/09 06:27:13;;;;;;;;;;;102.50;2227.20;;;;;;4964976;28;20389;-77
2022/01/09 06:29:38;;;;;;;;;;;102.40;2227.20;;;;;;4965957;28;19928;-77
2022/01/09 06:32:04;;;;;;;;;;;77.70;2227.20;;;;;;4966442;28;20402;-75
2022/01/09 06:34:30;;;;;;;;;;;77.60;2227.20;;;;;;4964768;28;19953;-77
2022/01/09 06:36:56;;;;;;;;;;;77.60;2227.20;;;;;;4966115;28;20325;-76
2022/01/09 06:39:21;;;;;;;;;;;77.40;2227.20;;;;;;4965943;28;19918;-76
2022/01/09 06:41:47;;;;;;;;;;;77.40;2227.20;;;;;;4946990;28;20915;-85
2022/01/09 06:44:13;;;;;;;;;;;77.50;2227.20;;;;;;4950015;28;19910;-76
2022/01/09 06:46:38;;;;;;;;;;;77.50;2227.20;;;;;;4964640;28;19912;-78
2022/01/09 06:49:04;;;;;;;;;;;77.60;2227.20;;;;;;4955656;28;19910;-76
2022/01/09 06:51:29;;;;;;;;;;;77.60;2227.20;;;;;;4964315;28;19910;-77
2022/01/09 06:53:55;;;;;;;;;;;77.70;2227.20;;;;;;4966102;28;19914;-77
2022/01/09 06:56:20;;;;;;;;;;;102.40;2227.20;;;;;;4966759;28;19973;-76
2022/01/09 06:58:46;;;;;;;;;;;102.40;2227.20;;;;;;4964436;28;19906;-75
2022/01/09 07:01:12;;;;;;;;;;;102.40;2227.20;;;;;;4965812;28;19906;-77
2022/01/09 07:03:37;;;;;;;;;;;102.40;2227.20;;;;;;4963622;28;19965;-75
2022/01/09 07:06:03;;;;;;;;;;;77.70;2227.20;;;;;;4965466;28;19906;-76
2022/01/09 07:08:31;;;;;;;;;;;102.40;2227.20;;;;;;4962681;28;20371;-81
2022/01/09 07:10:57;;;;;;;;;;;102.40;2227.20;;;;;;4966512;28;19917;-75
2022/01/09 07:13:22;;;;;;;;;;;102.50;2227.20;;;;;;4965149;28;19906;-75
2022/01/09 07:15:48;;;;;;;;;;;102.50;2227.20;;;;;;4963016;28;19906;-76
2022/01/09 07:18:13;;;;;;;;;;;102.50;2227.20;;;;;;4966797;28;19913;-81
2022/01/09 07:20:39;;;;;;;;;;;102.60;2227.20;;;;;;4948223;28;19910;-75
2022/01/09 07:23:04;;;;;;;;;;;102.70;2227.20;;;;;;4965354;28;19998;-74
2022/01/09 07:25:30;;;;;;;;;;;102.70;2227.20;;;;;;4964131;28;19920;-77
2022/01/09 07:27:56;;;;;;;;;;;102.60;2227.20;;;;;;4965662;28;20316;-75
2022/01/09 07:30:21;;;;;;;;;;;102.60;2227.20;;;;;;4964741;28;19906;-80
2022/01/09 07:32:47;;;;;;;;;;;102.50;2227.20;;;;;;4947070;28;19910;-75
2022/01/09 07:35:12;;;;;;;;;;;102.50;2227.20;;;;;;4956198;28;19906;-75
2022/01/09 07:37:38;;;;;;;;;;;102.50;2227.20;;;;;;4964273;28;19907;-75
2022/01/09 07:40:04;;;;;;;;;;;77.70;2227.20;;;;;;4964693;28;19968;-75
2022/01/09 07:42:29;;;;;;;;;;;77.40;2227.20;;;;;;4965294;28;20369;-74
2022/01/09 07:44:55;;;;;;;;;;;77.20;2227.20;;;;;;4963675;28;19910;-75
2022/01/09 07:47:21;;;;;;;;;;;77.20;2227.20;;;;;;4965149;28;20302;-75
2022/01/09 07:49:46;;;;;;;;;;;77.20;2227.20;;;;;;4965076;28;19907;-75
2022/01/09 07:52:12;;;;;;;;;;;77.10;2227.20;;;;;;4946382;28;20382;-75
2022/01/09 07:54:37;;;;;;;;;;;77.20;2227.20;;;;;;4965737;28;19906;-75
2022/01/09 07:57:03;;;;;;;;;;;77.30;2227.20;;;;;;4964527;28;19994;-75
2022/01/09 07:59:29;;;;;;;;;;;77.10;2227.20;;;;;;4964004;28;20373;-74
2022/01/09 08:01:54;;;;;;;;;;;76.90;2227.20;;;;;;4948131;28;19988;-74
2022/01/09 08:04:20;;;;;;;;;;;76.80;2227.20;;;;;;4963559;28;19910;-74
2022/01/09 08:06:46;;;;;;;;;;;76.80;2227.20;;;;;;4947068;28;20451;-74
2022/01/09 08:09:11;;;;;;;;;;;76.80;2227.20;;;;;;4965264;28;19907;-75
2022/01/09 08:11:37;;;;;;;;;;;76.90;2227.20;;;;;;4963450;28;19910;-74
2022/01/09 08:14:02;;;;;;;;;;;76.90;2227.20;;;;;;4964954;28;19961;-75
2022/01/09 08:16:28;;;;;;;;;;;76.90;2227.20;;;;;;4964776;28;20364;-74
2022/01/09 08:18:53;;;;;;;;;;;76.80;2227.20;;;;;;4963151;28;19922;-75
2022/01/09 08:21:20;;;;;;;;;;;76.80;2227.20;;;;;;4965100;28;19960;-75
2022/01/09 08:23:47;;;;;;;;;;;52.10;2227.20;;;;;;4964387;28;19923;-75
2022/01/09 08:26:13;;;;;;;;;;;52.10;2227.20;;;;;;4963598;28;19906;-80
2022/01/09 08:28:41;;;;;;;;;;;51.70;2227.20;;;;;;4947601;28;19910;-75
2022/01/09 08:31:08;;;;;;;;;;;52.00;2227.20;;;;;;4964534;28;20374;-78
2022/01/09 08:33:33;;;;;;;;;;;52.00;2227.20;;;;;;4965656;28;20005;-76
2022/01/09 08:35:59;;;;;;;;;;;52.00;2227.20;;;;;;4951437;28;20005;-75
2022/01/09 08:38:25;;;;;;;;;;;51.90;2227.20;;;;;;4967598;28;19938;-75
2022/01/09 08:40:50;;;;;;;;;;;51.90;2227.20;;;;;;4967036;28;19918;-74
2022/01/09 08:43:16;;;;;;;;;;;52.00;2227.20;;;;;;4968573;28;19957;-75
2022/01/09 08:45:42;;;;;;;;;;;52.00;2227.20;;;;;;4966790;28;19907;-74
2022/01/09 08:48:07;;;;;;;;;;;52.00;2227.20;;;;;;4967584;28;19906;-74
2022/01/09 08:50:33;;;;;;;;;;;52.00;2227.20;;;;;;4967928;28;20381;-76
2022/01/09 08:52:59;;;;;;;;;;;51.90;2227.20;;;;;;4966625;28;19915;-75
2022/01/09 08:55:24;;;;;;;;;;;52.10;2227.20;;;;;;4967729;28;20321;-74
2022/01/09 08:57:50;;;;;;;;;;;52.10;2227.20;;;;;;4967772;28;19907;-76
2022/01/09 09:00:18;;;;;;;;;;;76.90;2227.20;;;;;;4966370;28;19914;-75
2022/01/09 09:02:44;;;;;;;;;;;77.00;2227.20;;;;;;4967833;28;20564;-77
2022/01/09 09:05:10;;;;;;;;;;;77.00;2227.20;;;;;;4967390;28;19953;-75
2022/01/09 09:07:35;;;;;;;;;;;76.90;2227.20;;;;;;4969091;28;19907;-74
2022/01/09 09:10:04;;;;;;;;;;;77.00;2227.20;;;;;;4966229;28;20401;-78
2022/01/09 09:12:31;;;;;;;;;;;77.00;2227.20;;;;;;4966969;28;19961;-76
2022/01/09 09:14:58;;;;;;;;;;;76.90;2227.20;;;;;;4967931;28;21354;-76
2022/01/09 09:17:24;;;;;;;;;;;76.80;2227.20;;;;;;4967751;28;19917;-78
2022/01/09 09:19:49;;;;;;;;;;;52.10;2227.20;;;;;;4966811;28;20294;-75
2022/01/09 09:22:15;;;;;;;;;;;52.10;2227.20;;;;;;4965977;28;19972;-73
2022/01/09 09:24:40;;;;;;;;;;;52.00;2227.20;;;;;;4967776;28;19913;-73
2022/01/09 09:27:06;;;;;;;;;;;52.00;2227.20;;;;;;4966019;28;19913;-74
2022/01/09 09:29:32;;;;;;;;;;;51.80;2227.20;;;;;;4967545;28;19917;-74
2022/01/09 09:31:58;;;;;;;;;;;51.90;2227.20;;;;;;4966438;28;19906;-75
2022/01/09 09:34:24;;;;;;;;;;;52.10;2227.20;;;;;;4967586;28;20416;-75
2022/01/09 09:36:50;;;;;;;;;;;52.00;2227.20;;;;;;4965515;28;19913;-74
2022/01/09 09:39:15;;;;;;;;;;;52.00;2227.20;;;;;;4966490;28;19918;-74
2022/01/09 09:41:41;;;;;;;;;;;52.00;2227.20;;;;;;4967120;28;19913;-75
2022/01/09 09:44:09;;;;;;;;;;;52.10;2227.20;;;;;;4964168;28;20326;-75
2022/01/09 09:46:35;;;;;;;;;;;76.80;2227.20;;;;;;4966645;28;20339;-73
2022/01/09 09:49:02;;;;;;;;;;;52.10;2227.20;;;;;;4966938;28;19969;-75
2022/01/09 09:51:29;;;;;;;;;;;52.10;2227.20;;;;;;4947957;28;19937;-74
2022/01/09 09:53:55;;;;;;;;;;;76.80;2227.20;;;;;;4975328;28;20000;-74
2022/01/09 09:56:21;;;;;;;;;;;52.10;2227.20;;;;;;4975131;28;19948;-74
2022/01/09 09:58:49;;;;;;;;;;;52.10;2227.20;;;;;;4975061;28;19946;-75
2022/01/09 10:01:24;;;;;;;;;;;76.80;2227.20;;;;;;4975169;28;19910;-75
2022/01/09 10:03:58;;;;;;;;;;;77.00;2227.20;;;;;;4972917;28;19914;-75
2022/01/09 10:06:40;;;;;;;;;;;76.80;2227.20;;;;;;4974823;28;20420;-75
2022/01/09 10:09:07;;;;;;;;;;;76.80;2227.20;;;;;;4957465;28;20004;-75
2022/01/09 10:11:49;;;;;;;;;;;76.90;2227.20;;;;;;4975006;28;19997;-74
2022/01/09 10:14:15;;;;;;;;;;;76.80;2227.20;;;;;;4974977;28;19914;-74
2022/01/09 10:16:41;;;;;;;;;;;52.10;2227.20;;;;;;4974981;28;20598;-75
2022/01/09 10:19:06;;;;;;;;;;;52.10;2227.20;;;;;;4974939;28;19914;-78
2022/01/09 10:21:32;;;;;;;;;;;76.90;2227.20;;;;;;4974803;28;19917;-74
2022/01/09 10:24:01;;;;;;;;;;;76.90;2227.20;;;;;;4957272;28;19914;-74
2022/01/09 10:26:27;;;;;;;;;;;77.00;2227.20;;;;;;4974357;28;19913;-74
2022/01/09 10:28:53;;;;;;;;;;;77.10;2227.20;;;;;;4974379;28;19906;-73
2022/01/09 10:31:19;;;;;;;;;;;77.10;2227.20;;;;;;4974391;28;19961;-74
2022/01/09 10:34:06;;;;;;;;;;;77.20;2227.20;;;;;;4974170;28;19906;-74
2022/01/09 10:36:40;;;;;;;;;;;77.20;2227.20;;;;;;4974450;28;19913;-73
2022/01/09 10:39:07;;;;;;;;;;;77.30;2227.20;;;;;;4973624;28;19910;-73
2022/01/09 10:41:44;;;;;;;;;;;77.40;2227.20;;;;;;4973856;28;19910;-75
2022/01/09 10:44:14;;;;;;;;;;;77.40;2227.20;;;;;;4971902;28;19949;-75
2022/01/09 10:46:40;;;;;;;;;;;77.40;2227.20;;;;;;4974755;28;19906;-74
2022/01/09 10:49:05;;;;;;;;;;;77.50;2227.20;;;;;;4974546;28;20278;-73
2022/01/09 10:51:31;;;;;;;;;;;102.40;2227.20;;;;;;4974633;28;20273;-74
2022/01/09 10:53:58;;;;;;;;;;;102.40;2227.20;;;;;;4973309;28;19910;-74
2022/01/09 10:56:25;;;;;;;;;;;102.70;2227.20;;;;;;4974229;28;19910;-75
2022/01/09 10:58:56;;;;;;;;;;;102.60;2227.20;;;;;;4974413;28;19910;-75
2022/01/09 11:01:27;;;;;;;;;;;102.60;2227.20;;;;;;4974439;28;19906;-76
2022/01/09 11:03:57;;;;;;;;;;;102.70;2227.20;;;;;;4973790;28;20008;-74
2022/01/09 11:06:24;;;;;;;;;;;102.70;2227.20;;;;;;4973956;28;20355;-74
2022/01/09 11:08:50;;;;;;;;;;;102.40;2227.20;;;;;;4973970;28;20358;-73
2022/01/09 11:13:48;;;;;;;;;;;102.40;2227.20;;;;;;4971370;28;19952;-74
2022/01/09 11:16:33;;;;;;;;;;;77.70;2227.20;;;;;;4973866;28;20377;-75
2022/01/09 11:19:04;;;;;;;;;;;102.50;2227.20;;;;;;4973761;28;20346;-76
2022/01/09 11:21:30;;;;;;;;;;;102.70;2227.20;;;;;;4971691;28;19910;-74
2022/01/09 11:24:21;;;;;;;;;;;102.90;2227.20;;;;;;4973585;28;19918;-74
2022/01/09 11:27:05;;;;;;;;;;;102.90;2227.20;;;;;;4973544;28;19961;-74
2022/01/09 11:29:43;;;;;;;;;;;102.70;2227.20;;;;;;4973663;28;19906;-77
2022/01/09 11:32:12;;;;;;;;;;;102.90;2227.20;;;;;;4973655;28;19997;-74
2022/01/09 11:34:38;;;;;;;;;;;102.80;2227.20;;;;;;4973977;28;20002;-81
2022/01/09 11:37:09;;;;;;;;;;;102.90;2227.20;;;;;;4973571;28;20302;-75
2022/01/09 11:39:36;;;;;;;;;;;102.90;2227.20;;;;;;4973715;28;19964;-75
2022/01/09 11:42:05;;;;;;;;;;;102.90;2227.20;;;;;;4956451;28;19985;-78
2022/01/09 11:44:30;;;;;;;;;;;102.60;2227.20;;;;;;4953288;28;20331;-79
2022/01/09 11:46:57;;;;;;;;;;;102.50;2227.20;;;;;;4973409;28;20008;-79
2022/01/09 11:49:22;;;;;;;;;;;102.50;2227.20;;;;;;4971949;28;20282;-73
2022/01/09 11:51:52;;;;;;;;;;;102.50;2227.20;;;;;;4973742;28;19914;-75
2022/01/09 11:54:19;;;;;;;;;;;102.40;2227.20;;;;;;4974603;28;19906;-78
2022/01/09 11:56:51;;;;;;;;;;;77.70;2227.20;;;;;;4974633;28;19910;-74
2022/01/09 11:59:25;;;;;;;;;;;102.60;2227.20;;;;;;4974632;28;19913;-73
2022/01/09 12:01:52;;;;;;;;;;;102.60;2227.20;;;;;;4974546;28;19913;-77
2022/01/09 12:04:33;;;;;;;;;;;102.50;2227.20;;;;;;4974717;28;19956;-76
2022/01/09 12:06:59;;;;;;;;;;;102.90;2227.20;;;;;;4974566;28;19906;-74
2022/01/09 12:09:51;;;;;;;;;;;102.90;2227.20;;;;;;4978088;28;19909;-76
2022/01/09 12:12:22;;;;;;;;;;;103.00;2227.20;;;;;;4975414;28;20001;-73
2022/01/09 12:14:54;;;;;;;;;;;103.20;2227.20;;;;;;4977473;28;19910;-75
2022/01/09 12:17:26;;;;;;;;;;;103.20;2227.20;;;;;;4975963;28;19910;-75
2022/01/09 12:19:58;;;;;;;;;;;103.30;2227.20;;;;;;4973445;28;20004;-77
2022/01/09 12:22:39;;;;;;;;;;;103.00;2227.20;;;;;;4969109;28;20037;-77
2022/01/09 12:25:08;;;;;;;;;;;103.00;2227.20;;;;;;4967935;28;19914;-73
2022/01/09 12:27:40;;;;;;;;;;;103.10;2227.20;;;;;;4968772;28;19910;-76
2022/01/09 12:30:06;;;;;;;;;;;103.20;2227.20;;;;;;4965181;28;19946;-74
2022/01/09 12:32:39;;;;;;;;;;;103.30;2227.20;;;;;;4968000;28;19915;-76
2022/01/09 12:35:19;;;;;;;;;;;103.10;2227.20;;;;;;4969554;28;19922;-76
2022/01/09 12:37:46;;;;;;;;;;;103.20;2227.20;;;;;;4977271;28;19910;-73
2022/01/09 12:40:13;;;;;;;;;;;103.30;2227.20;;;;;;4977479;28;20012;-75
2022/01/09 12:42:43;;;;;;;;;;;103.30;2227.20;;;;;;4977578;28;20442;-73
2022/01/09 12:45:09;;;;;;;;;;;103.20;2227.20;;;;;;4955920;28;19910;-84
2022/01/09 12:47:38;;;;;;;;;;;128.00;2252.80;;;;;;4972334;28;20334;-79
2022/01/09 12:50:07;;;;;;;;;;;128.00;2252.80;;;;;;4970726;28;19918;-79
2022/01/09 12:52:35;;;;;;;;;;;103.30;2227.20;;;;;;4968465;28;20425;-82
2022/01/09 12:55:08;;;;;;;;;;;102.80;2227.20;;;;;;4969551;28;19906;-82
2022/01/09 12:57:49;;;;;;;;;;;102.80;2227.20;;;;;;4967888;28;19906;-79
2022/01/09 13:00:15;;;;;;;;;;;102.50;2227.20;;;;;;4969749;28;19914;-81
2022/01/09 13:02:50;;;;;;;;;;;102.40;2227.20;;;;;;4971012;28;19918;-80
2022/01/09 13:05:19;;;;;;;;;;;77.60;2227.20;;;;;;4974987;28;19906;-77
2022/01/09 13:07:45;;;;;;;;;;;77.70;2227.20;;;;;;4975797;28;19957;-75
2022/01/09 13:10:15;;;;;;;;;;;77.60;2227.20;;;;;;4972397;28;20321;-73
2022/01/09 13:13:01;;;;;;;;;;;77.60;2227.20;;;;;;4956763;28;19910;-77
2022/01/09 13:15:44;;;;;;;;;;;77.40;2227.20;;;;;;4967458;28;19914;-79
2022/01/09 13:18:10;;;;;;;;;;;77.40;2227.20;;;;;;4970880;28;19914;-80
2022/01/09 13:20:35;;;;;;;;;;;77.40;2227.20;;;;;;4963449;28;20001;-80
2022/01/09 13:23:08;;;;;;;;;;;77.50;2227.20;;;;;;4966744;28;19938;-77
2022/01/09 13:26:01;;;;;;;;;;;102.40;2227.20;;;;;;4965679;28;19922;-80
2022/01/09 13:28:27;;;;;;;;;;;102.70;2227.20;;;;;;4966236;28;20383;-75
2022/01/09 13:30:57;;;;;;;;;;;102.50;2227.20;;;;;;4966746;28;19913;-80
2022/01/09 13:33:23;;;;;;;;;;;102.50;2227.20;;;;;;4966312;28;19914;-75
2022/01/09 13:35:49;;;;;;;;;;;102.50;2227.20;;;;;;4968238;28;20386;-81
2022/01/09 13:38:14;;;;;;;;;;;102.50;2227.20;;;;;;4968017;28;19918;-77
2022/01/09 13:40:40;;;;;;;;;;;102.50;2227.20;;;;;;4965796;28;19973;-76
2022/01/09 13:43:06;;;;;;;;;;;77.70;2227.20;;;;;;4966780;28;19914;-78
2022/01/09 13:45:37;;;;;;;;;;;77.70;2227.20;;;;;;4967357;28;19913;-77
2022/01/09 13:48:04;;;;;;;;;;;77.70;2227.20;;;;;;4966328;28;19910;-74
2022/01/09 13:50:32;;;;;;;;;;;77.50;2227.20;;;;;;4965605;28;20348;-77
2022/01/09 13:53:08;;;;;;;;;;;77.40;2227.20;;;;;;4975886;28;19914;-77